Time;durP1;ratioP1;P1;durP2;ratioP2;P2;SDS_P1;SDS_P2;PMS_P1;PMS_P2;Temp;Humidity;BMP_temperature;BMP_pressure;BME280_temperature;BME280_humidity;BME280_pressure;Samples;Min_cycle;Max_cycle;Signal;HPM_P1;HPM_P2
2023/12/14 00:02:03;;;;;;;5.28;4.88;;;4.50;99.90;;;;;;4945511;28;20511;-88
2023/12/14 00:04:32;;;;;;;11.25;7.70;;;4.60;99.90;;;;;;4934142;29;20229;-85
2023/12/14 00:07:02;;;;;;;4.82;4.38;;;4.70;99.90;;;;;;4940209;29;20246;-87
2023/12/14 00:09:40;;;;;;;8.93;4.10;;;4.60;99.90;;;;;;4980783;23;20248;-83
2023/12/14 00:14:48;;;;;;;7.80;7.07;;;4.50;99.90;;;;;;5150159;23;20239;-84
2023/12/14 00:17:16;;;;;;;6.68;4.00;;;4.50;99.90;;;;;;4940416;29;20220;-86
2023/12/14 00:19:43;;;;;;;11.95;10.98;;;4.60;99.90;;;;;;4947241;29;20541;-85
2023/12/14 00:22:13;;;;;;;5.97;5.63;;;4.40;99.90;;;;;;4944434;29;20256;-85
2023/12/14 00:24:42;;;;;;;6.25;5.70;;;4.60;99.90;;;;;;4943714;29;20279;-84
2023/12/14 00:27:11;;;;;;;5.03;3.95;;;4.50;99.90;;;;;;4947374;29;20244;-87
2023/12/14 00:29:39;;;;;;;6.50;6.13;;;4.50;99.90;;;;;;4955302;29;20204;-83
2023/12/14 00:32:06;;;;;;;5.35;4.15;;;4.50;99.90;;;;;;4946567;29;20208;-83
2023/12/14 00:37:10;;;;;;;4.63;3.67;;;4.40;99.90;;;;;;5013034;23;20232;-88
2023/12/14 00:39:39;;;;;;;8.38;7.70;;;4.40;99.90;;;;;;5040290;23;20243;-86
2023/12/14 00:42:16;;;;;;;4.13;3.83;;;4.40;99.90;;;;;;5208246;23;20232;-86
2023/12/14 00:44:45;;;;;;;8.73;5.90;;;4.50;99.90;;;;;;4962594;28;20212;-84
2023/12/14 00:49:46;;;;;;;9.20;8.65;;;4.40;99.90;;;;;;5158542;23;21061;-87
2023/12/14 00:52:13;;;;;;;9.15;8.27;;;4.40;99.90;;;;;;5494796;23;20321;-84
2023/12/14 00:54:41;;;;;;;6.85;6.20;;;4.40;99.90;;;;;;4942923;28;20231;-86
2023/12/14 00:57:10;;;;;;;7.25;5.88;;;4.40;99.90;;;;;;5004150;23;20532;-89
2023/12/14 00:59:40;;;;;;;8.25;7.57;;;4.40;99.90;;;;;;4982642;23;20671;-86
2023/12/14 01:02:07;;;;;;;6.40;5.38;;;4.40;99.90;;;;;;4926890;29;20241;-85
2023/12/14 01:07:17;;;;;;;6.15;4.72;;;4.40;99.90;;;;;;5333141;23;20473;-88
2023/12/14 01:09:44;;;;;;;5.03;4.72;;;4.50;99.90;;;;;;4939110;29;20239;-86
2023/12/14 01:14:48;;;;;;;7.65;4.25;;;4.40;99.90;;;;;;5640218;23;20220;-83
2023/12/14 01:19:55;;;;;;;7.55;7.05;;;4.50;99.90;;;;;;5293175;23;20258;-89
2023/12/14 01:22:31;;;;;;;7.43;7.03;;;4.50;99.90;;;;;;4951004;28;20224;-85
2023/12/14 01:35:46;;;;;;;5.53;5.18;;;4.60;99.90;;;;;;5284333;23;20247;-85
2023/12/14 01:40:55;;;;;;;11.48;9.23;;;4.50;99.90;;;;;;5012145;23;20227;-87
2023/12/14 01:45:58;;;;;;;24.48;14.32;;;4.50;99.90;;;;;;5454186;23;20248;-86
2023/12/14 01:51:03;;;;;;;8.32;7.63;;;4.40;99.90;;;;;;5067587;23;20255;-86
2023/12/14 01:53:30;;;;;;;6.40;5.68;;;4.30;99.90;;;;;;5244690;23;20232;-87
2023/12/14 02:03:59;;;;;;;5.25;4.90;;;4.50;99.90;;;;;;5024089;23;20241;-85
2023/12/14 02:06:26;;;;;;;10.68;9.77;;;4.50;99.90;;;;;;5057350;23;20222;-87
2023/12/14 02:08:54;;;;;;;9.82;9.13;;;4.40;99.90;;;;;;4953402;28;20277;-81
2023/12/14 02:11:22;;;;;;;8.27;7.68;;;4.40;99.90;;;;;;4954620;29;20212;-85
2023/12/14 02:13:49;;;;;;;10.30;8.57;;;4.50;99.90;;;;;;5105696;23;20270;-87
2023/12/14 02:16:19;;;;;;;6.57;5.97;;;4.40;99.90;;;;;;5048536;23;20219;-84
2023/12/14 02:18:47;;;;;;;6.07;5.55;;;4.50;99.90;;;;;;5096668;23;20252;-85
2023/12/14 02:26:35;;;;;;;3.38;3.17;;;4.50;99.90;;;;;;5078040;23;20246;-86
2023/12/14 02:29:04;;;;;;;6.07;5.53;;;4.40;99.90;;;;;;5167099;23;20469;-86
2023/12/14 02:31:32;;;;;;;8.55;7.72;;;4.50;99.90;;;;;;4955177;29;20214;-80
2023/12/14 02:33:59;;;;;;;4.63;4.38;;;4.50;99.90;;;;;;4943564;28;20188;-83
2023/12/14 02:36:26;;;;;;;7.13;6.45;;;4.40;99.90;;;;;;5128963;23;20250;-82
2023/12/14 02:38:53;;;;;;;8.43;7.75;;;4.40;99.90;;;;;;5136600;23;20246;-81
2023/12/14 02:41:20;;;;;;;8.00;7.15;;;4.40;99.90;;;;;;4943435;29;20211;-82
2023/12/14 02:43:51;;;;;;;5.40;5.00;;;4.40;99.90;;;;;;4950310;28;20213;-88
2023/12/14 02:46:21;;;;;;;12.80;6.60;;;4.40;99.90;;;;;;4949997;29;20212;-90
2023/12/14 02:48:51;;;;;;;7.68;7.07;;;4.40;99.90;;;;;;4947846;29;20216;-85
2023/12/14 02:51:18;;;;;;;3.45;3.25;;;4.40;99.90;;;;;;4940549;29;20309;-84
2023/12/14 02:53:50;;;;;;;8.60;7.78;;;4.40;99.90;;;;;;4942834;29;20208;-84
2023/12/14 02:56:19;;;;;;;6.22;5.65;;;4.40;99.90;;;;;;4947659;29;20256;-82
2023/12/14 02:58:51;;;;;;;13.35;7.07;;;4.40;99.90;;;;;;4948488;29;20505;-84
2023/12/14 03:06:30;;;;;;;10.40;9.43;;;4.40;99.90;;;;;;5222151;23;20723;-86
2023/12/14 03:09:00;;;;;;;7.60;7.07;;;4.60;99.90;;;;;;5247117;23;20233;-88
2023/12/14 03:11:28;;;;;;;9.50;3.63;;;4.40;99.90;;;;;;4933792;29;20185;-88
2023/12/14 03:13:56;;;;;;;13.85;7.75;;;4.40;99.90;;;;;;5079516;23;20255;-88
2023/12/14 03:16:23;;;;;;;6.38;5.75;;;4.50;99.90;;;;;;5044648;23;20266;-85
2023/12/14 03:18:53;;;;;;;9.95;6.35;;;4.40;99.90;;;;;;4950701;28;20193;-85
2023/12/14 03:21:20;;;;;;;2.75;2.45;;;4.50;99.90;;;;;;5377716;23;20219;-86
2023/12/14 03:32:01;;;;;;;11.48;7.47;;;4.50;99.90;;;;;;5447681;23;20240;-88
2023/12/14 03:37:03;;;;;;;8.10;5.18;;;4.50;99.90;;;;;;5015572;23;20245;-85
2023/12/14 03:42:08;;;;;;;5.90;5.40;;;4.40;99.90;;;;;;5187276;23;20224;-85
2023/12/14 03:44:35;;;;;;;7.97;7.40;;;4.40;99.90;;;;;;5231695;23;21635;-85
2023/12/14 03:47:05;;;;;;;3.75;3.53;;;4.50;99.90;;;;;;4951265;29;20216;-82
2023/12/14 03:54:44;;;;;;;4.32;2.65;;;4.50;99.90;;;;;;5000329;23;20457;-83
2023/12/14 03:59:47;;;;;;;5.63;4.63;;;4.50;99.90;;;;;;5230309;23;20354;-87
2023/12/14 04:02:17;;;;;;;5.65;5.28;;;4.40;99.90;;;;;;5268551;23;20242;-87
2023/12/14 04:04:48;;;;;;;9.07;7.97;;;4.50;99.90;;;;;;5047092;23;20528;-90
2023/12/14 04:07:16;;;;;;;3.28;3.08;;;4.50;99.90;;;;;;4937112;28;20226;-80
2023/12/14 04:09:45;;;;;;;4.45;4.10;;;4.50;99.90;;;;;;4948419;29;20293;-88
2023/12/14 04:12:14;;;;;;;10.35;8.60;;;4.50;99.90;;;;;;4940886;28;20252;-83
2023/12/14 04:14:46;;;;;;;11.70;10.10;;;4.40;99.90;;;;;;5418926;23;20303;-89
2023/12/14 04:25:18;;;;;;;5.30;4.83;;;4.50;99.90;;;;;;5789936;23;20545;-88
2023/12/14 04:27:46;;;;;;;2.25;2.15;;;4.50;99.90;;;;;;4948105;29;20220;-87
2023/12/14 04:30:14;;;;;;;5.10;4.80;;;4.50;99.90;;;;;;5706173;23;20223;-86
2023/12/14 04:35:31;;;;;;;6.45;5.85;;;4.50;99.90;;;;;;5220278;23;20242;-88
2023/12/14 04:40:34;;;;;;;9.15;4.88;;;4.50;99.90;;;;;;4953607;23;20248;-87
2023/12/14 04:43:01;;;;;;;2.92;2.70;;;4.50;99.90;;;;;;4915620;29;20710;-87
2023/12/14 04:45:32;;;;;;;7.45;5.03;;;4.40;99.90;;;;;;5058183;23;20252;-85
2023/12/14 04:48:02;;;;;;;3.28;3.17;;;4.40;99.90;;;;;;4929313;29;20285;-82
2023/12/14 04:50:29;;;;;;;4.80;4.50;;;4.40;99.90;;;;;;5194747;23;20217;-90
2023/12/14 04:52:57;;;;;;;7.13;6.60;;;4.40;99.90;;;;;;4946216;29;20205;-89
2023/12/14 04:55:28;;;;;;;7.00;5.82;;;4.40;99.90;;;;;;5247479;23;20229;-84
2023/12/14 04:57:55;;;;;;;5.55;4.43;;;4.50;99.90;;;;;;4931655;29;20197;-87
2023/12/14 05:00:22;;;;;;;6.22;5.82;;;4.40;99.90;;;;;;4915497;29;20202;-86
2023/12/14 05:02:54;;;;;;;10.02;4.13;;;4.30;99.90;;;;;;4909251;29;20262;-87
2023/12/14 05:05:21;;;;;;;6.88;6.35;;;4.50;99.90;;;;;;4917146;29;20288;-86
2023/12/14 05:07:48;;;;;;;6.68;4.90;;;4.40;99.90;;;;;;4918278;29;20660;-83
2023/12/14 05:10:16;;;;;;;11.18;10.05;;;4.50;99.90;;;;;;4917085;29;20296;-85
2023/12/14 05:12:43;;;;;;;6.53;6.15;;;4.30;99.90;;;;;;4914479;29;20235;-83
2023/12/14 05:15:11;;;;;;;9.23;8.43;;;4.20;99.90;;;;;;4920228;29;20205;-90
2023/12/14 05:20:20;;;;;;;4.65;4.25;;;4.20;99.90;;;;;;5378618;23;20455;-89
2023/12/14 05:30:55;;;;;;;4.50;3.97;;;4.30;99.90;;;;;;5813217;23;20259;-89
2023/12/14 05:33:23;;;;;;;5.90;3.97;;;4.30;99.90;;;;;;5324423;23;20284;-90
2023/12/14 05:41:11;;;;;;;6.65;6.15;;;4.30;99.90;;;;;;5083103;23;20323;-90
2023/12/14 05:43:40;;;;;;;8.52;7.50;;;4.30;99.90;;;;;;4932414;29;20229;-88
2023/12/14 05:48:42;;;;;;;12.55;6.35;;;4.30;99.90;;;;;;5513640;23;20235;-86
2023/12/14 05:51:10;;;;;;;6.30;5.90;;;4.30;99.90;;;;;;5221019;23;20531;-85
2023/12/14 06:01:39;;;;;;;4.60;4.20;;;4.40;99.90;;;;;;5574006;23;20307;-88
2023/12/14 06:04:21;;;;;;;4.68;3.35;;;4.40;99.90;;;;;;5112840;23;20308;-86
2023/12/14 06:06:49;;;;;;;8.77;8.23;;;4.30;99.90;;;;;;5150038;23;20227;-87
2023/12/14 06:09:21;;;;;;;5.07;4.63;;;4.40;99.90;;;;;;4930423;29;20229;-85
2023/12/14 06:11:52;;;;;;;2.90;2.70;;;4.30;99.90;;;;;;4928443;29;20212;-91
2023/12/14 06:14:21;;;;;;;7.70;6.00;;;4.20;99.90;;;;;;4919913;29;20201;-88
2023/12/14 06:16:51;;;;;;;9.30;8.60;;;4.20;99.90;;;;;;4939675;28;20219;-84
2023/12/14 06:19:22;;;;;;;3.00;2.88;;;4.30;99.90;;;;;;4910328;29;20201;-87
2023/12/14 06:21:51;;;;;;;7.45;4.18;;;4.30;99.90;;;;;;4928163;29;20297;-86
2023/12/14 06:24:22;;;;;;;2.80;2.70;;;4.50;99.90;;;;;;4925727;29;20200;-89
2023/12/14 06:32:16;;;;;;;3.28;3.08;;;4.30;99.90;;;;;;5671296;23;20220;-87
2023/12/14 06:34:43;;;;;;;5.05;4.38;;;4.30;99.90;;;;;;5015690;23;20221;-88
2023/12/14 06:37:10;;;;;;;4.18;3.88;;;4.30;99.90;;;;;;5276589;23;21660;-87
2023/12/14 06:42:19;;;;;;;2.22;2.13;;;4.30;99.90;;;;;;5809312;23;20233;-88
2023/12/14 06:44:46;;;;;;;3.60;3.30;;;4.30;99.90;;;;;;4938825;28;20209;-87
2023/12/14 06:49:52;;;;;;;6.47;5.95;;;4.20;99.90;;;;;;5485076;23;20258;-89
2023/12/14 06:57:46;;;;;;;3.08;2.88;;;4.30;99.90;;;;;;5115516;23;20247;-89
2023/12/14 07:00:14;;;;;;;1.45;1.45;;;4.30;99.90;;;;;;4931464;28;20205;-84
2023/12/14 07:02:44;;;;;;;8.55;2.22;;;4.20;99.90;;;;;;4936805;29;20232;-87
2023/12/14 07:05:12;;;;;;;4.00;3.28;;;4.20;99.90;;;;;;4941053;29;20211;-88
2023/12/14 07:07:39;;;;;;;3.33;3.03;;;4.20;99.90;;;;;;4932884;29;20252;-86
2023/12/14 07:10:06;;;;;;;3.30;3.03;;;4.30;99.90;;;;;;5026666;23;20260;-88
2023/12/14 07:23:39;;;;;;;5.63;5.17;;;4.20;99.90;;;;;;6149003;22;1646659;31
2023/12/14 07:26:08;;;;;;;5.18;4.82;;;4.00;99.90;;;;;;6268038;22;20205;-87
2023/12/14 07:28:37;;;;;;;7.10;3.00;;;4.20;99.90;;;;;;6227935;22;20216;-86
2023/12/14 07:31:05;;;;;;;2.47;2.28;;;4.20;99.90;;;;;;6230921;22;20197;-84
2023/12/14 07:33:32;;;;;;;2.47;2.38;;;4.20;99.90;;;;;;6257021;22;20198;-89
2023/12/14 07:36:00;;;;;;;6.90;6.15;;;4.20;99.90;;;;;;6271358;22;20162;-90
2023/12/14 07:38:28;;;;;;;4.95;4.60;;;4.30;99.90;;;;;;6251747;22;20198;-90
2023/12/14 07:41:11;;;;;;;4.35;4.00;;;4.20;99.90;;;;;;5233131;22;20578;-91
2023/12/14 07:43:38;;;;;;;6.38;6.03;;;4.20;99.90;;;;;;5107791;27;20209;-87
2023/12/14 07:48:46;;;;;;;3.20;3.00;;;4.20;99.90;;;;;;5521535;22;20212;-89
2023/12/14 07:53:51;;;;;;;3.10;2.90;;;4.10;99.90;;;;;;5348412;22;20252;-87
2023/12/14 07:56:18;;;;;;;2.45;2.35;;;4.20;99.90;;;;;;5085989;28;20204;-89
2023/12/14 07:58:45;;;;;;;8.55;4.40;;;4.20;99.90;;;;;;5161650;22;20232;-89
2023/12/14 08:01:12;;;;;;;2.28;2.08;;;4.10;99.90;;;;;;5050031;28;20204;-90
2023/12/14 08:03:40;;;;;;;3.80;2.85;;;4.20;99.90;;;;;;5173373;23;20243;-85
2023/12/14 08:06:07;;;;;;;2.75;2.65;;;4.10;99.90;;;;;;5075886;28;20208;-89
2023/12/14 08:08:35;;;;;;;8.73;8.02;;;4.20;99.90;;;;;;5074254;28;20209;-86
2023/12/14 08:11:08;;;;;;;5.47;5.18;;;4.20;99.90;;;;;;5051752;28;20210;-87
2023/12/14 08:13:35;;;;;;;2.92;2.83;;;4.10;99.90;;;;;;5283909;22;21826;-88
2023/12/14 08:16:04;;;;;;;10.82;4.30;;;4.20;99.90;;;;;;5088820;28;20221;-90
2023/12/14 08:18:32;;;;;;;5.45;5.03;;;4.10;99.90;;;;;;5084803;28;20202;-88
2023/12/14 08:20:59;;;;;;;9.40;5.50;;;4.20;99.90;;;;;;5103432;28;20214;-88
2023/12/14 08:23:27;;;;;;;4.07;3.88;;;4.20;99.90;;;;;;5089294;28;20200;-88
2023/12/14 08:25:56;;;;;;;3.90;3.70;;;4.30;99.90;;;;;;5077228;28;20221;-89
2023/12/14 08:28:26;;;;;;;1.98;1.90;;;4.30;99.90;;;;;;5071615;28;20199;-87
2023/12/14 08:30:53;;;;;;;3.90;2.90;;;4.30;99.90;;;;;;5474245;22;21283;-88
2023/12/14 08:33:20;;;;;;;3.47;3.22;;;4.20;99.90;;;;;;5093128;28;20195;-89
2023/12/14 08:35:48;;;;;;;15.15;7.60;;;4.20;99.90;;;;;;5682100;22;21637;-87
2023/12/14 08:40:51;;;;;;;7.78;7.18;;;4.30;99.90;;;;;;5485705;22;20241;-86
2023/12/14 08:46:00;;;;;;;4.63;4.22;;;4.30;99.90;;;;;;5630834;22;20216;-87
2023/12/14 08:48:27;;;;;;;2.85;2.65;;;4.30;99.90;;;;;;5195675;23;20274;-87
2023/12/14 08:50:55;;;;;;;23.60;9.45;;;4.30;99.90;;;;;;5291678;22;20203;-87
2023/12/14 08:56:04;;;;;;;3.47;3.25;;;4.30;99.90;;;;;;5081597;28;20216;-89
2023/12/14 08:58:32;;;;;;;4.10;3.40;;;4.20;99.90;;;;;;5082119;28;20200;-86
2023/12/14 09:00:59;;;;;;;3.53;3.33;;;4.30;99.90;;;;;;5084443;28;20326;-82
2023/12/14 09:03:26;;;;;;;5.30;4.95;;;4.30;99.90;;;;;;5568287;22;21592;-89
2023/12/14 09:05:53;;;;;;;6.80;4.32;;;4.10;99.90;;;;;;5048452;28;20211;-87
2023/12/14 09:08:21;;;;;;;6.68;6.03;;;4.30;99.90;;;;;;5175826;22;20240;-85
2023/12/14 09:13:20;;;;;;;3.40;3.20;;;4.30;99.90;;;;;;5102657;22;20243;-86
2023/12/14 09:15:52;;;;;;;2.50;2.35;;;4.20;99.90;;;;;;5426045;22;20228;-87
2023/12/14 09:18:20;;;;;;;6.38;5.97;;;4.20;99.90;;;;;;5323612;22;20326;-89
2023/12/14 09:20:51;;;;;;;3.08;2.97;;;4.20;99.90;;;;;;5061380;28;20231;-90
2023/12/14 09:23:19;;;;;;;1.25;1.25;;;4.10;99.90;;;;;;5690613;22;20559;-89
2023/12/14 09:25:46;;;;;;;3.42;3.08;;;4.20;99.90;;;;;;5258364;22;20393;-84
2023/12/14 09:36:24;;;;;;;3.38;3.05;;;4.30;99.90;;;;;;5852687;22;20434;-91
2023/12/14 09:38:53;;;;;;;3.70;3.53;;;4.30;99.90;;;;;;5661755;22;20223;-90
2023/12/14 09:41:20;;;;;;;3.85;3.25;;;4.40;99.90;;;;;;5513163;22;20320;-86
2023/12/14 09:43:52;;;;;;;1.50;1.40;;;4.30;99.90;;;;;;5100385;22;20231;-90
2023/12/14 09:46:24;;;;;;;3.95;3.60;;;4.30;99.90;;;;;;5062310;28;20223;-85
2023/12/14 09:51:29;;;;;;;1.02;1.02;;;4.20;99.90;;;;;;5892803;22;20249;-92
2023/12/14 09:54:01;;;;;;;10.07;6.15;;;4.30;99.90;;;;;;5229635;22;20220;-89
2023/12/14 09:56:46;;;;;;;;;;;;;;;;;;;;;
2023/12/14 10:15:23;;;;;;;5.05;3.10;;;4.30;99.90;;;;;;5266680;23;20274;-91
2023/12/14 10:17:55;;;;;;;2.30;2.10;;;4.40;99.90;;;;;;5297837;22;20224;-89
2023/12/14 10:20:23;;;;;;;7.10;3.88;;;4.30;99.90;;;;;;5196695;22;20283;-86
2023/12/14 10:22:55;;;;;;;10.18;6.13;;;4.20;99.90;;;;;;5495517;22;20304;-91
2023/12/14 10:25:31;;;;;;;9.23;5.55;;;4.30;99.90;;;;;;5039175;28;20190;-90
2023/12/14 10:28:03;;;;;;;4.32;2.70;;;4.20;99.90;;;;;;5105632;22;20223;-87
2023/12/14 10:30:31;;;;;;;2.72;2.63;;;4.30;99.90;;;;;;5056005;28;20192;-89
2023/12/14 10:33:03;;;;;;;3.90;3.58;;;4.20;99.90;;;;;;5134237;22;20238;-90
2023/12/14 10:35:32;;;;;;;3.35;3.15;;;4.20;99.90;;;;;;5114870;22;20234;-89
2023/12/14 10:38:04;;;;;;;2.92;2.03;;;4.10;99.90;;;;;;5045724;28;20235;-90
2023/12/14 10:40:43;;;;;;;3.10;3.00;;;4.10;99.90;;;;;;5171415;23;20254;-90
2023/12/14 10:43:27;;;;;;;4.20;3.97;;;4.10;99.90;;;;;;5076993;28;20179;-91
2023/12/14 10:46:19;;;;;;;4.80;4.38;;;4.30;99.90;;;;;;5083331;28;20198;-90
2023/12/14 10:48:48;;;;;;;3.67;3.47;;;4.20;99.90;;;;;;5071931;28;20215;-83
2023/12/14 10:51:24;;;;;;;3.08;2.97;;;4.30;99.90;;;;;;5094831;28;20188;-88
2023/12/14 10:56:28;;;;;;;5.47;4.53;;;4.20;99.90;;;;;;5110707;22;20235;-87
2023/12/14 10:58:57;;;;;;;8.63;7.28;;;4.30;99.90;;;;;;5066845;28;20204;-84
2023/12/14 11:01:32;;;;;;;7.30;2.85;;;4.20;99.90;;;;;;5065998;28;20208;-90
2023/12/14 11:04:00;;;;;;;1.92;1.83;;;4.30;99.90;;;;;;5038937;28;20276;-90
2023/12/14 11:06:32;;;;;;;4.00;3.80;;;4.30;99.90;;;;;;5235685;22;21514;-90
2023/12/14 11:11:47;;;;;;;2.22;2.00;;;4.30;99.90;;;;;;5128338;22;20236;-88
2023/12/14 11:14:18;;;;;;;5.88;5.30;;;4.30;99.90;;;;;;5057520;28;20191;-89
2023/12/14 11:16:48;;;;;;;6.45;5.43;;;4.20;99.90;;;;;;5124887;22;20220;-87
2023/12/14 11:19:22;;;;;;;5.03;4.72;;;4.20;99.90;;;;;;5057032;28;20222;-89
2023/12/14 11:22:14;;;;;;;4.03;3.83;;;4.20;99.90;;;;;;5038331;28;20223;-89
2023/12/14 11:24:50;;;;;;;9.93;3.45;;;4.20;99.90;;;;;;5038167;28;20200;-87
2023/12/14 11:32:30;;;;;;;2.95;2.75;;;4.10;99.90;;;;;;5094102;28;20199;-90
2023/12/14 11:34:57;;;;;;;2.88;2.67;;;4.30;99.90;;;;;;5063726;28;20204;-90
2023/12/14 11:37:28;;;;;;;2.47;2.38;;;4.20;99.90;;;;;;5065693;28;20223;-90
2023/12/14 11:39:55;;;;;;;1.30;1.25;;;4.20;99.90;;;;;;5076558;28;20219;-90
2023/12/14 11:42:25;;;;;;;4.03;3.72;;;4.30;99.90;;;;;;5064258;28;20245;-90
2023/12/14 11:44:53;;;;;;;1.13;1.13;;;4.10;99.90;;;;;;5067848;28;20400;-88
2023/12/14 11:47:27;;;;;;;3.80;3.42;;;4.10;99.90;;;;;;5078186;28;20262;-89
2023/12/14 11:49:55;;;;;;;5.72;4.25;;;4.20;99.90;;;;;;5064587;28;20263;-86
2023/12/14 11:52:22;;;;;;;3.42;3.22;;;4.10;99.90;;;;;;5070477;28;20215;-87
2023/12/14 11:54:50;;;;;;;2.88;2.60;;;4.20;99.90;;;;;;5093048;28;20195;-87
2023/12/14 11:59:53;;;;;;;3.03;2.65;;;4.20;99.90;;;;;;5290330;22;20219;-87
2023/12/14 12:02:24;;;;;;;2.70;2.50;;;4.20;99.90;;;;;;5273706;22;20294;-89
2023/12/14 12:04:52;;;;;;;7.43;6.88;;;4.20;99.90;;;;;;5070744;23;20290;-85
2023/12/14 12:07:20;;;;;;;1.83;1.80;;;4.20;99.90;;;;;;5062809;28;20240;-86
2023/12/14 12:12:34;;;;;;;0.93;0.93;;;4.10;99.90;;;;;;5177397;22;20255;-81
2023/12/14 12:15:04;;;;;;;2.70;2.47;;;4.00;99.90;;;;;;5049081;28;20430;-86
2023/12/14 12:17:37;;;;;;;4.88;3.22;;;4.00;99.90;;;;;;5065091;28;20390;-87
2023/12/14 12:20:05;;;;;;;10.18;4.38;;;4.00;99.90;;;;;;5057072;28;20821;-88
2023/12/14 12:22:33;;;;;;;3.60;3.47;;;4.00;99.90;;;;;;5091770;22;20450;-88
2023/12/14 12:27:35;;;;;;;2.20;2.10;;;4.10;99.90;;;;;;5029779;28;20276;-85
2023/12/14 12:30:03;;;;;;;4.15;3.95;;;3.90;99.90;;;;;;5032623;28;20216;-88
2023/12/14 12:32:30;;;;;;;3.95;3.75;;;3.90;99.90;;;;;;5028328;28;20211;-87
2023/12/14 12:35:00;;;;;;;3.60;3.40;;;3.90;99.90;;;;;;5046739;22;20451;-87
2023/12/14 12:37:27;;;;;;;3.67;3.42;;;3.90;99.90;;;;;;5263381;22;20243;-84
2023/12/14 12:39:54;;;;;;;3.35;3.15;;;3.80;99.90;;;;;;5055303;28;20180;-85
2023/12/14 12:44:55;;;;;;;4.57;4.18;;;3.90;99.90;;;;;;5027210;28;20248;-84
2023/12/14 12:47:22;;;;;;;1.80;1.70;;;3.80;99.90;;;;;;5025668;28;20212;-85
2023/12/14 12:49:49;;;;;;;4.25;3.92;;;3.70;99.90;;;;;;5027156;28;20197;-89
2023/12/14 12:52:17;;;;;;;2.75;2.55;;;4.00;99.90;;;;;;5034756;28;20233;-84
2023/12/14 12:54:44;;;;;;;2.35;2.15;;;3.70;99.90;;;;;;5032440;28;20236;-88
2023/12/14 12:57:11;;;;;;;3.05;2.80;;;3.60;99.90;;;;;;5018209;28;20286;-87
2023/12/14 12:59:39;;;;;;;4.25;3.85;;;3.70;99.90;;;;;;5010603;28;20205;-87
2023/12/14 13:02:06;;;;;;;2.67;2.38;;;3.60;99.90;;;;;;5033452;28;20241;-83
2023/12/14 13:04:33;;;;;;;1.20;0.93;;;3.70;99.90;;;;;;5030115;28;20240;-83
2023/12/14 13:07:03;;;;;;;4.20;3.33;;;3.70;99.90;;;;;;5223812;22;20262;-87
2023/12/14 13:09:53;;;;;;;4.45;4.15;;;3.70;99.90;;;;;;5181837;22;20232;-89
2023/12/14 13:12:28;;;;;;;0.70;0.70;;;3.90;99.90;;;;;;5076940;28;20196;-89
2023/12/14 13:14:59;;;;;;;2.78;2.55;;;3.70;99.90;;;;;;5070642;28;20192;-86
2023/12/14 13:17:26;;;;;;;1.88;1.77;;;3.60;99.90;;;;;;5056322;28;20188;-86
2023/12/14 13:19:54;;;;;;;2.65;2.45;;;3.70;99.90;;;;;;5162567;22;20237;-87
2023/12/14 13:25:05;;;;;;;4.10;2.20;;;3.70;99.90;;;;;;5621941;23;20292;-89
2023/12/14 13:27:36;;;;;;;2.45;2.25;;;3.70;99.90;;;;;;5055066;28;20201;-90
2023/12/14 13:30:04;;;;;;;3.08;2.97;;;3.70;99.90;;;;;;5031301;28;20558;-87
2023/12/14 13:32:32;;;;;;;1.77;1.67;;;3.70;99.90;;;;;;5025555;28;20209;-87
2023/12/14 13:34:59;;;;;;;3.10;2.67;;;3.60;99.90;;;;;;5041178;28;20224;-92
2023/12/14 13:37:40;;;;;;;;;;;;;;;;;;;;;
2023/12/14 13:40:18;;;;;;;1.85;1.75;;;4.00;99.90;;;;;;5461598;23;20253;-89
2023/12/14 13:50:45;;;;;;;2.92;2.72;;;3.70;99.90;;;;;;5483692;23;21290;-86
2023/12/14 13:55:49;;;;;;;0.93;0.93;;;3.60;99.90;;;;;;5595153;23;20227;-88
2023/12/14 14:00:59;;;;;;;1.25;1.20;;;3.60;99.90;;;;;;5451950;22;20231;-87
2023/12/14 14:03:27;;;;;;;1.67;1.58;;;3.60;99.90;;;;;;5090528;22;20331;-84
2023/12/14 14:05:58;;;;;;;4.25;3.95;;;3.60;99.90;;;;;;5217573;22;20230;-89
2023/12/14 14:08:26;;;;;;;4.72;4.43;;;3.50;99.90;;;;;;5060323;28;20200;-88
2023/12/14 14:10:56;;;;;;;2.88;2.67;;;3.50;99.90;;;;;;5040149;28;20224;-90
2023/12/14 14:13:36;;;;;;;5.88;3.85;;;3.40;99.90;;;;;;5179398;22;20272;-85
2023/12/14 14:18:42;;;;;;;0.93;0.93;;;3.40;99.90;;;;;;5389292;22;20206;-90
2023/12/14 14:21:10;;;;;;;4.15;3.72;;;3.50;99.90;;;;;;5044627;28;20224;-87
2023/12/14 14:23:37;;;;;;;1.42;1.38;;;3.90;99.90;;;;;;5038045;28;20224;-86
2023/12/14 14:26:06;;;;;;;3.60;3.22;;;3.50;99.90;;;;;;5042176;28;20219;-89
2023/12/14 14:28:36;;;;;;;2.95;2.75;;;3.60;99.90;;;;;;5048532;28;20192;-88
2023/12/14 14:33:41;;;;;;;1.63;1.52;;;3.40;99.90;;;;;;5214234;22;20249;-90
2023/12/14 14:36:09;;;;;;;2.83;2.72;;;3.70;99.90;;;;;;5215455;22;20266;-89
2023/12/14 14:41:12;;;;;;;4.20;3.90;;;3.40;99.90;;;;;;5633218;22;20269;-89
2023/12/14 14:46:30;;;;;;;5.22;4.80;;;3.40;99.90;;;;;;5531949;22;20318;-87
2023/12/14 14:49:01;;;;;;;2.75;2.65;;;3.40;99.90;;;;;;5083204;28;20287;-88
2023/12/14 14:51:31;;;;;;;5.90;2.58;;;3.30;99.90;;;;;;5037409;28;20189;-89
2023/12/14 14:53:58;;;;;;;2.50;1.58;;;3.50;99.90;;;;;;5059255;28;20219;-86
2023/12/14 14:56:32;;;;;;;2.25;2.05;;;3.30;99.90;;;;;;5085138;28;20497;-84
2023/12/14 14:58:59;;;;;;;3.13;2.90;;;3.30;99.90;;;;;;5193168;22;20231;-88
2023/12/14 15:01:27;;;;;;;2.72;2.42;;;2.90;99.90;;;;;;5209988;22;20723;-86
2023/12/14 15:03:57;;;;;;;2.22;2.13;;;3.30;99.90;;;;;;5031303;28;20262;-86
2023/12/14 15:06:26;;;;;;;8.10;5.63;;;3.20;99.90;;;;;;5040583;28;20219;-87
2023/12/14 15:08:55;;;;;;;9.88;7.43;;;3.20;99.90;;;;;;5049299;28;20200;-89
2023/12/14 15:11:22;;;;;;;3.03;1.25;;;3.10;99.90;;;;;;5019642;28;20208;-87
2023/12/14 15:13:50;;;;;;;2.15;1.48;;;3.10;99.90;;;;;;5028241;28;20224;-88
2023/12/14 15:16:24;;;;;;;8.48;1.30;;;3.10;99.90;;;;;;5055683;28;20217;-86
2023/12/14 15:18:52;;;;;;;1.45;1.35;;;3.10;99.90;;;;;;5022384;28;20193;-89
2023/12/14 15:23:51;;;;;;;3.33;3.22;;;3.10;99.90;;;;;;5017204;28;20227;-89
2023/12/14 15:26:21;;;;;;;3.50;3.30;;;3.10;99.90;;;;;;5006940;28;20198;-87
2023/12/14 15:28:48;;;;;;;1.67;1.60;;;3.00;99.90;;;;;;5007999;28;20199;-85
2023/12/14 15:31:15;;;;;;;4.65;4.35;;;3.00;99.90;;;;;;5022719;28;20200;-85
2023/12/14 15:33:42;;;;;;;8.68;3.80;;;3.00;99.90;;;;;;5023977;28;20224;-88
2023/12/14 15:36:09;;;;;;;9.85;5.78;;;2.90;99.90;;;;;;5013345;28;20194;-85
2023/12/14 15:41:13;;;;;;;2.58;2.47;;;3.00;99.90;;;;;;5047053;23;20244;-86
2023/12/14 15:43:40;;;;;;;2.60;2.50;;;2.60;99.90;;;;;;5020710;28;20228;-86
2023/12/14 15:46:08;;;;;;;3.60;2.88;;;2.90;99.90;;;;;;5043258;28;20196;-84
2023/12/14 15:48:36;;;;;;;3.05;2.58;;;2.90;99.90;;;;;;5116103;23;20278;-84
2023/12/14 15:51:04;;;;;;;0.98;0.98;;;2.90;99.90;;;;;;5044312;28;20205;-83
2023/12/14 15:53:36;;;;;;;2.80;2.70;;;2.90;99.90;;;;;;5044746;28;20212;-83
2023/12/14 15:56:06;;;;;;;3.95;3.15;;;2.80;99.90;;;;;;5040235;28;20276;-87
2023/12/14 15:58:34;;;;;;;2.40;2.30;;;2.80;99.90;;;;;;5042966;28;20197;-84
2023/12/14 16:01:01;;;;;;;6.38;4.95;;;2.80;99.90;;;;;;5042248;28;20300;-89
2023/12/14 16:03:28;;;;;;;4.95;4.55;;;2.80;99.90;;;;;;5039132;28;20210;-91
2023/12/14 16:05:57;;;;;;;5.50;5.05;;;2.80;99.90;;;;;;5048349;28;20241;-86
2023/12/14 16:08:25;;;;;;;2.70;2.45;;;2.90;99.90;;;;;;5047046;28;20185;-87
2023/12/14 16:10:53;;;;;;;7.47;6.22;;;2.90;99.90;;;;;;5032213;28;20208;-85
2023/12/14 16:13:20;;;;;;;2.80;2.70;;;2.90;99.90;;;;;;5327594;23;20239;-84
2023/12/14 16:18:17;;;;;;;3.88;3.53;;;2.90;99.90;;;;;;5151729;22;20247;-86
2023/12/14 16:23:17;;;;;;;1.75;1.65;;;2.90;99.90;;;;;;5284646;23;20560;-84
2023/12/14 16:25:45;;;;;;;9.30;3.53;;;3.10;99.90;;;;;;5146760;22;20204;-87
2023/12/14 16:28:17;;;;;;;1.25;1.25;;;2.90;99.90;;;;;;5074653;28;20201;-87
2023/12/14 16:30:45;;;;;;;1.65;1.55;;;2.80;99.90;;;;;;5258856;22;20668;-86
2023/12/14 16:33:12;;;;;;;5.22;4.30;;;2.90;99.90;;;;;;5118918;22;20220;-86
2023/12/14 16:35:40;;;;;;;2.05;1.95;;;2.90;99.90;;;;;;5070921;28;20220;-87
2023/12/14 16:38:09;;;;;;;2.28;2.17;;;2.80;99.90;;;;;;5321394;22;20222;-88
2023/12/14 16:40:44;;;;;;;2.95;2.75;;;2.90;99.90;;;;;;5064020;28;20189;-88
2023/12/14 16:43:11;;;;;;;1.77;1.67;;;2.90;99.90;;;;;;5600458;23;20227;-84
2023/12/14 16:45:38;;;;;;;1.30;1.23;;;2.90;99.90;;;;;;5216921;22;21318;-86
2023/12/14 16:50:53;;;;;;;2.50;2.40;;;2.80;99.90;;;;;;5196013;22;20222;-86
2023/12/14 16:53:21;;;;;;;1.55;1.55;;;2.90;99.90;;;;;;5148425;22;20292;-84
2023/12/14 16:55:50;;;;;;;6.95;5.07;;;2.90;99.90;;;;;;5373940;22;20260;-87
2023/12/14 16:58:17;;;;;;;5.18;4.68;;;2.80;99.90;;;;;;5291441;22;20446;-88
2023/12/14 17:03:20;;;;;;;9.18;3.50;;;2.90;99.90;;;;;;5310356;22;20240;-84
2023/12/14 17:05:55;;;;;;;4.82;4.45;;;2.90;99.90;;;;;;5233921;22;20238;-86
2023/12/14 17:08:27;;;;;;;3.03;2.83;;;2.80;99.90;;;;;;5074966;28;20270;-86
2023/12/14 17:10:56;;;;;;;10.07;6.95;;;2.70;99.90;;;;;;5093805;28;20207;-87
2023/12/14 17:13:26;;;;;;;4.25;3.70;;;2.80;99.90;;;;;;5091024;28;20267;-88
2023/12/14 17:15:54;;;;;;;3.03;2.83;;;2.80;99.90;;;;;;5295124;22;20234;-88